createdAt,value
2019-01-06T00:01:49.348Z,74.42
2019-01-06T00:04:40.079Z,74.49
2019-01-06T00:07:39.459Z,73.87
2019-01-06T00:10:32.644Z,73.87
2019-01-06T00:13:14.891Z,73.89
2019-01-06T00:16:17.732Z,73.49
2019-01-06T00:19:06.590Z,73.49
2019-01-06T00:21:56.268Z,73.59
2019-01-06T00:24:45.129Z,73.76
2019-01-06T00:27:34.588Z,73.89
2019-01-06T00:30:40.549Z,73.89
2019-01-06T00:33:37.605Z,74.31
2019-01-06T00:36:32.165Z,74.31
2019-01-06T00:39:21.158Z,74.15
2019-01-06T00:42:18.605Z,74.93
2019-01-06T00:45:07.768Z,74.09
2019-01-06T00:48:07.696Z,74.84
2019-01-06T00:50:58.245Z,75.28
2019-01-06T00:53:47.350Z,75.74
2019-01-06T00:56:38.260Z,75.40
2019-01-06T00:59:40.997Z,74.50
2019-01-06T01:02:41.003Z,74.45
2019-01-06T01:05:37.414Z,74.45
2019-01-06T01:08:30.878Z,74.12
2019-01-06T01:11:19.741Z,74.08
2019-01-06T01:14:19.138Z,74.08
2019-01-06T01:17:09.425Z,73.86
2019-01-06T01:19:58.395Z,73.70
2019-01-06T01:22:51.861Z,74.07
2019-01-06T01:25:51.883Z,74.08
2019-01-06T01:28:53.951Z,74.16
2019-01-06T01:31:43.735Z,74.16
2019-01-06T01:34:27.741Z,74.44
2019-01-06T01:37:30.450Z,73.65
2019-01-06T01:40:19.114Z,73.65
2019-01-06T01:43:08.796Z,73.83
2019-01-06T01:45:59.882Z,74.18
2019-01-06T01:48:50.575Z,74.18
2019-01-06T01:51:55.939Z,74.47
2019-01-06T01:54:45.521Z,73.93
2019-01-06T01:57:51.063Z,73.94
2019-01-06T02:00:41.044Z,74.88
2019-01-06T02:03:37.388Z,74.61
2019-01-06T02:06:40.099Z,74.61
2019-01-06T02:09:36.165Z,74.53
2019-01-06T02:12:25.671Z,75.17
2019-01-06T02:15:22.913Z,75.17
2019-01-06T02:18:21.952Z,75.12
2019-01-06T02:21:10.354Z,75.12
2019-01-06T02:23:59.423Z,74.53
2019-01-06T02:26:48.284Z,74.26
2019-01-06T02:29:40.021Z,74.54
2019-01-06T02:32:29.237Z,74.54
2019-01-06T02:35:12.164Z,69.80
2019-01-06T02:38:17.637Z,69.80
2019-01-06T02:41:06.905Z,69.52
2019-01-06T02:43:56.275Z,69.51
2019-01-06T02:46:47.402Z,69.51
2019-01-06T02:49:38.505Z,70.21
2019-01-06T02:52:27.962Z,69.44
2019-01-06T02:55:18.278Z,69.44
2019-01-06T02:58:08.884Z,69.51
2019-01-06T03:01:02.568Z,69.78
2019-01-06T03:03:49.729Z,69.74
2019-01-06T03:06:49.370Z,69.74
2019-01-06T03:09:35.290Z,70.29
2019-01-06T03:12:24.127Z,69.33
2019-01-06T03:15:13.797Z,69.77
2019-01-06T03:18:02.971Z,70.09
2019-01-06T03:21:01.313Z,69.15
2019-01-06T03:24:15.670Z,69.99
2019-01-06T03:27:05.753Z,69.99
2019-01-06T03:29:55.907Z,71.77
2019-01-06T03:32:57.624Z,70.95
2019-01-06T03:35:46.991Z,70.58
2019-01-06T03:38:47.324Z,70.18
2019-01-06T03:41:36.397Z,71.02
2019-01-06T03:44:26.461Z,71.00
2019-01-06T03:47:23.100Z,71.06
2019-01-06T03:50:27.844Z,71.61
2019-01-06T03:53:16.155Z,71.61
2019-01-06T03:56:05.555Z,72.20
2019-01-06T03:58:53.283Z,72.41
2019-01-06T04:05:00.639Z,71.63
2019-01-06T04:07:53.755Z,71.87
2019-01-06T04:11:02.486Z,71.98
2019-01-06T04:13:53.337Z,72.12
2019-01-06T04:16:50.574Z,72.50
2019-01-06T04:19:42.949Z,72.50
2019-01-06T04:22:52.241Z,72.57
2019-01-06T04:25:43.237Z,74.38
2019-01-06T04:28:32.725Z,75.06
2019-01-06T04:31:32.770Z,75.06
2019-01-06T04:34:22.702Z,73.67
2019-01-06T04:37:25.067Z,73.58
2019-01-06T04:40:10.773Z,73.49
2019-01-06T04:43:04.335Z,73.91
2019-01-06T04:46:08.331Z,73.90
2019-01-06T04:48:57.709Z,73.90
2019-01-06T04:52:03.839Z,73.31
2019-01-06T04:55:00.429Z,73.31
2019-01-06T04:57:51.601Z,73.57
2019-01-06T05:00:59.196Z,73.86
2019-01-06T05:03:55.449Z,74.18
2019-01-06T05:06:44.028Z,74.34
2019-01-06T05:09:32.287Z,74.34
2019-01-06T05:12:40.767Z,74.59
2019-01-06T05:15:34.961Z,73.53
2019-01-06T05:18:23.919Z,73.53
2019-01-06T05:21:13.543Z,72.76
2019-01-06T05:24:09.425Z,72.76
2019-01-06T05:26:58.432Z,72.94
2019-01-06T05:29:49.277Z,74.40
2019-01-06T05:32:52.570Z,73.95
2019-01-06T05:35:45.837Z,73.95
2019-01-06T05:38:46.369Z,72.98
2019-01-06T05:41:39.711Z,73.43
2019-01-06T05:44:29.516Z,73.23
2019-01-06T05:47:38.624Z,73.45
2019-01-06T05:50:44.708Z,73.45
2019-01-06T05:53:33.870Z,73.43
2019-01-06T05:56:23.244Z,73.70
2019-01-06T05:59:12.298Z,73.26
2019-01-06T06:02:12.318Z,72.97
2019-01-06T06:05:02.813Z,72.97
2019-01-06T06:07:59.649Z,72.69
2019-01-06T06:10:50.161Z,72.25
2019-01-06T06:13:50.071Z,72.25
2019-01-06T06:16:40.566Z,72.00
2019-01-06T06:19:26.264Z,71.56
2019-01-06T06:22:16.660Z,71.29
2019-01-06T06:25:05.873Z,71.13
2019-01-06T06:27:55.075Z,70.92
2019-01-06T06:30:58.015Z,70.92
2019-01-06T06:33:49.262Z,70.26
2019-01-06T06:36:38.352Z,70.13
2019-01-06T06:39:26.987Z,70.13
2019-01-06T06:42:08.793Z,70.13
2019-01-06T06:44:57.856Z,69.47
2019-01-06T06:47:55.371Z,69.21
2019-01-06T06:50:52.065Z,68.88
2019-01-06T06:53:51.567Z,68.32
2019-01-06T06:56:46.417Z,67.77
2019-01-06T06:59:49.575Z,67.96
2019-01-06T07:03:21.316Z,67.55
2019-01-06T07:06:18.139Z,67.55
2019-01-06T07:09:11.413Z,67.86
2019-01-06T07:12:00.799Z,67.82
2019-01-06T07:14:51.598Z,68.36
2019-01-06T07:18:05.536Z,68.70
2019-01-06T07:20:55.526Z,69.24
2019-01-06T07:23:45.391Z,67.68
2019-01-06T07:26:34.038Z,67.02
2019-01-06T07:29:23.214Z,67.02
2019-01-06T07:32:16.777Z,67.14
2019-01-06T07:35:12.093Z,66.30
2019-01-06T07:38:06.825Z,66.50
2019-01-06T07:41:03.432Z,66.50
2019-01-06T07:43:53.829Z,66.00
2019-01-06T07:46:44.549Z,66.00
2019-01-06T07:49:25.376Z,67.10
2019-01-06T07:52:13.306Z,66.69
2019-01-06T07:54:57.480Z,66.69
2019-01-06T07:57:41.247Z,67.12
2019-01-06T08:00:43.588Z,66.64
2019-01-06T08:03:33.163Z,66.26
2019-01-06T08:06:22.431Z,66.26
2019-01-06T08:09:12.210Z,65.37
2019-01-06T08:12:01.572Z,64.84
2019-01-06T08:14:50.943Z,65.61
2019-01-06T08:17:59.765Z,65.61
2019-01-06T08:20:49.653Z,66.66
2019-01-06T08:23:50.031Z,65.65
2019-01-06T08:26:46.512Z,65.65
2019-01-06T08:29:49.092Z,65.77
2019-01-06T08:32:38.359Z,65.77
2019-01-06T08:35:27.526Z,66.34
2019-01-06T08:38:33.691Z,66.98
2019-01-06T08:41:23.263Z,66.38
2019-01-06T08:44:16.313Z,67.58
2019-01-06T08:47:12.718Z,66.63
2019-01-06T08:50:12.356Z,66.25
2019-01-06T08:53:02.640Z,66.25
2019-01-06T08:55:53.039Z,66.43
2019-01-06T08:58:52.661Z,66.24
2019-01-06T09:01:44.243Z,66.15
2019-01-06T09:04:37.023Z,66.17
2019-01-06T09:07:30.199Z,66.17
2019-01-06T09:10:33.388Z,66.14
2019-01-06T09:13:24.390Z,66.14
2019-01-06T09:16:31.065Z,66.41
2019-01-06T09:19:22.064Z,66.52
2019-01-06T09:22:14.091Z,66.81
2019-01-06T09:25:10.634Z,66.81
2019-01-06T09:28:13.007Z,65.98
2019-01-06T09:31:06.677Z,65.98
2019-01-06T09:34:03.002Z,66.23
2019-01-06T09:36:52.073Z,65.93
2019-01-06T09:39:37.561Z,66.42
2019-01-06T09:42:31.022Z,66.16
2019-01-06T09:45:22.016Z,66.44
2019-01-06T09:48:10.984Z,66.44
2019-01-06T09:51:03.622Z,66.85
2019-01-06T09:53:57.698Z,66.85
2019-01-06T09:56:46.480Z,66.61
2019-01-06T09:59:36.070Z,66.42
2019-01-06T10:02:44.891Z,66.70
2019-01-06T10:05:42.028Z,66.70
2019-01-06T10:08:32.644Z,66.58
2019-01-06T10:11:26.405Z,66.88
2019-01-06T10:14:20.188Z,66.20
2019-01-06T10:17:10.066Z,67.02
2019-01-06T10:19:59.199Z,67.02
2019-01-06T10:22:52.905Z,66.33
2019-01-06T10:25:45.651Z,66.34
2019-01-06T10:28:34.816Z,66.29
2019-01-06T10:31:28.689Z,66.96
2019-01-06T10:34:18.521Z,67.03
2019-01-06T10:37:15.578Z,67.66
2019-01-06T10:40:15.136Z,68.49
2019-01-06T10:43:18.115Z,68.49
2019-01-06T10:46:09.121Z,68.47
2019-01-06T10:49:09.403Z,68.50
2019-01-06T10:52:00.156Z,68.70
2019-01-06T10:54:49.220Z,68.96
2019-01-06T10:57:39.721Z,68.96
2019-01-06T11:00:45.876Z,69.29
2019-01-06T11:03:35.041Z,69.29
2019-01-06T11:06:44.069Z,69.33
2019-01-06T11:09:40.175Z,69.21
2019-01-06T11:12:42.888Z,69.45
2019-01-06T11:15:32.712Z,70.54
2019-01-06T11:18:23.528Z,70.54
2019-01-06T11:21:23.173Z,71.04
2019-01-06T11:24:22.877Z,70.74
2019-01-06T11:26:56.693Z,70.74
2019-01-06T11:30:05.515Z,71.51
2019-01-06T11:33:05.743Z,71.51
2019-01-06T11:35:56.655Z,71.42
2019-01-06T11:38:45.808Z,71.14
2019-01-06T11:41:34.978Z,71.14
2019-01-06T11:44:40.736Z,71.46
2019-01-06T11:47:49.461Z,71.30
2019-01-06T11:50:49.579Z,71.28
2019-01-06T11:53:38.502Z,71.36
2019-01-06T11:56:32.707Z,70.97
2019-01-06T11:59:29.053Z,71.51
2019-01-06T12:02:18.218Z,71.51
2019-01-06T12:05:27.118Z,71.42
2019-01-06T12:08:25.736Z,71.42
2019-01-06T12:11:28.217Z,70.65
2019-01-06T12:14:16.919Z,70.02
2019-01-06T12:17:18.931Z,70.04
2019-01-06T12:20:08.289Z,70.21
2019-01-06T12:22:57.362Z,70.24
2019-01-06T12:25:57.792Z,70.35
2019-01-06T12:28:51.573Z,70.35
2019-01-06T12:31:55.772Z,71.14
2019-01-06T12:34:44.533Z,70.73
2019-01-06T12:37:44.238Z,70.67
2019-01-06T12:40:35.338Z,71.04
2019-01-06T12:43:19.663Z,70.77
2019-01-06T12:46:18.598Z,70.77
2019-01-06T12:49:24.936Z,71.20
2019-01-06T12:52:27.521Z,71.09
2019-01-06T12:55:17.810Z,70.98
2019-01-06T12:58:08.515Z,70.98
2019-01-06T13:00:57.386Z,70.65
2019-01-06T13:03:56.470Z,70.65
2019-01-06T13:06:45.523Z,70.55
2019-01-06T13:09:33.975Z,70.55
2019-01-06T13:12:27.537Z,70.65
2019-01-06T13:15:20.293Z,70.84
2019-01-06T13:18:09.246Z,71.14
2019-01-06T13:20:58.023Z,71.14
2019-01-06T13:23:46.663Z,70.87
2019-01-06T13:26:52.445Z,70.87
2019-01-06T13:29:43.188Z,70.72
2019-01-06T13:32:51.355Z,70.77
2019-01-06T13:35:41.547Z,70.77
2019-01-06T13:38:31.476Z,70.48
2019-01-06T13:41:28.197Z,70.50
2019-01-06T13:44:36.593Z,70.62
2019-01-06T13:47:33.205Z,70.67
2019-01-06T13:50:24.929Z,70.92
2019-01-06T13:53:15.660Z,70.92
2019-01-06T13:56:05.322Z,70.61
2019-01-06T13:59:14.245Z,71.50
2019-01-06T14:02:03.622Z,70.75
2019-01-06T14:04:54.933Z,71.04
2019-01-06T14:07:48.493Z,71.26
2019-01-06T14:10:48.113Z,71.52
2019-01-06T14:13:36.566Z,71.65
2019-01-06T14:16:30.567Z,71.79
2019-01-06T14:19:30.049Z,71.71
2019-01-06T14:22:27.137Z,71.85
2019-01-06T14:25:15.965Z,71.85
2019-01-06T14:28:06.346Z,72.09
2019-01-06T14:30:56.629Z,71.86
2019-01-06T14:34:03.724Z,71.87
2019-01-06T14:37:00.047Z,71.87
2019-01-06T14:39:48.258Z,71.75
2019-01-06T14:42:44.422Z,72.15
2019-01-06T14:46:04.004Z,73.87
2019-01-06T14:48:54.084Z,73.87
2019-01-06T14:51:44.687Z,74.13
2019-01-06T14:54:32.151Z,74.97
2019-01-06T14:57:17.864Z,74.97
2019-01-06T15:00:13.811Z,75.16
2019-01-06T15:03:10.147Z,74.85
2019-01-06T15:06:14.993Z,74.98
2019-01-06T15:09:04.349Z,75.32
2019-01-06T15:12:04.711Z,75.32
2019-01-06T15:15:04.298Z,75.63
2019-01-06T15:17:55.203Z,75.49
2019-01-06T15:20:45.591Z,75.26
2019-01-06T15:23:39.166Z,75.55
2019-01-06T15:26:28.214Z,75.52
2019-01-06T15:29:27.525Z,75.52
2019-01-06T15:32:09.947Z,75.56
2019-01-06T15:35:00.151Z,75.56
2019-01-06T15:37:41.378Z,75.60
2019-01-06T15:40:30.372Z,75.91
2019-01-06T15:43:35.800Z,75.25
2019-01-06T15:46:32.342Z,75.25
2019-01-06T15:49:21.348Z,75.54
2019-01-06T15:52:20.399Z,75.43
2019-01-06T15:55:20.114Z,75.39
2019-01-06T15:58:26.070Z,75.39
2019-01-06T16:01:26.185Z,75.74
2019-01-06T16:04:15.164Z,75.91
2019-01-06T16:07:04.419Z,75.60
2019-01-06T16:09:55.137Z,75.60
2019-01-06T16:12:43.879Z,75.55
2019-01-06T16:15:32.935Z,75.55
2019-01-06T16:18:23.634Z,75.96
2019-01-06T16:21:12.516Z,75.94
2019-01-06T16:24:18.146Z,75.55
2019-01-06T16:27:02.721Z,75.56
2019-01-06T16:29:51.553Z,75.44
2019-01-06T16:32:48.012Z,75.44
2019-01-06T16:35:41.469Z,75.42
2019-01-06T16:38:32.621Z,75.42
2019-01-06T16:41:23.288Z,75.14
2019-01-06T16:44:12.028Z,75.48
2019-01-06T16:47:05.594Z,75.23
2019-01-06T16:49:53.939Z,75.16
2019-01-06T16:53:02.421Z,75.16
2019-01-06T16:55:55.731Z,75.05
2019-01-06T16:58:46.845Z,74.82
2019-01-06T17:01:49.629Z,74.66
2019-01-06T17:04:40.712Z,74.62
2019-01-06T17:07:26.636Z,74.62
2019-01-06T17:10:28.914Z,74.51
2019-01-06T17:13:19.993Z,74.51
2019-01-06T17:16:10.304Z,74.36
2019-01-06T17:19:03.753Z,74.57
2019-01-06T17:21:57.006Z,74.57
2019-01-06T17:25:06.195Z,74.37
2019-01-06T17:27:55.128Z,74.37
2019-01-06T17:30:51.451Z,74.45
2019-01-06T17:33:42.934Z,74.35
2019-01-06T17:36:34.043Z,74.37
2019-01-06T17:39:35.432Z,74.42
2019-01-06T17:42:24.094Z,74.42
2019-01-06T17:45:15.490Z,74.09
2019-01-06T17:48:04.264Z,74.09
2019-01-06T17:50:58.048Z,74.11
2019-01-06T17:54:03.163Z,74.30
2019-01-06T17:56:53.390Z,74.33
2019-01-06T17:59:43.428Z,74.18
2019-01-06T18:02:36.997Z,74.35
2019-01-06T18:05:25.675Z,73.92
2019-01-06T18:08:14.216Z,73.92
2019-01-06T18:11:02.648Z,74.43
2019-01-06T18:14:11.796Z,74.40
2019-01-06T18:17:00.949Z,74.26
2019-01-06T18:19:57.299Z,74.26
2019-01-06T18:22:59.576Z,74.32
2019-01-06T18:25:48.844Z,74.46
2019-01-06T18:28:39.131Z,74.46
2019-01-06T18:31:28.293Z,74.85
2019-01-06T18:34:21.556Z,74.53
2019-01-06T18:37:10.926Z,74.35
2019-01-06T18:39:59.791Z,74.08
2019-01-06T18:42:44.780Z,74.91
2019-01-06T18:45:27.976Z,74.76
2019-01-06T18:48:30.754Z,74.69
2019-01-06T18:51:36.085Z,74.69
2019-01-06T18:54:38.679Z,74.92
2019-01-06T18:57:41.068Z,75.05
2019-01-06T19:00:37.698Z,74.99
2019-01-06T19:03:43.634Z,74.99
2019-01-06T19:06:52.071Z,75.02
2019-01-06T19:09:41.381Z,75.11
2019-01-06T19:12:39.205Z,75.11
2019-01-06T19:15:38.612Z,75.46
2019-01-06T19:18:28.383Z,74.81
2019-01-06T19:21:24.513Z,75.42
2019-01-06T19:24:25.048Z,75.10
2019-01-06T19:27:27.838Z,75.10
2019-01-06T19:30:21.286Z,74.67
2019-01-06T19:33:09.974Z,74.67
2019-01-06T19:36:06.687Z,74.68
2019-01-06T19:39:09.679Z,74.23
2019-01-06T19:42:03.438Z,74.23
2019-01-06T19:45:05.505Z,74.40
2019-01-06T19:48:01.650Z,74.32
2019-01-06T19:50:51.549Z,74.31
2019-01-06T19:53:48.474Z,74.31
2019-01-06T19:56:38.896Z,74.82
2019-01-06T19:59:33.518Z,74.82
2019-01-06T20:02:24.019Z,74.25
2019-01-06T20:05:26.976Z,74.28
2019-01-06T20:08:15.999Z,74.60
2019-01-06T20:11:18.516Z,74.24
2019-01-06T20:14:07.545Z,74.24
2019-01-06T20:16:56.710Z,74.20
2019-01-06T20:19:49.759Z,74.20
2019-01-06T20:22:46.923Z,73.97
2019-01-06T20:25:52.774Z,74.14
2019-01-06T20:28:52.786Z,74.29
2019-01-06T20:31:41.786Z,74.29
2019-01-06T20:34:48.321Z,74.30
2019-01-06T20:37:47.048Z,74.30
2019-01-06T20:40:43.772Z,74.32
2019-01-06T20:43:32.724Z,74.30
2019-01-06T20:46:21.577Z,74.19
2019-01-06T20:49:30.221Z,74.19
2019-01-06T20:52:20.791Z,74.05
2019-01-06T20:55:26.864Z,74.05
2019-01-06T20:58:23.879Z,74.38
2019-01-06T21:01:16.748Z,74.26
2019-01-06T21:04:13.623Z,74.26
2019-01-06T21:07:06.760Z,73.90
2019-01-06T21:09:55.404Z,73.90
2019-01-06T21:12:44.562Z,74.10
2019-01-06T21:15:50.117Z,74.49
2019-01-06T21:18:44.678Z,74.49
2019-01-06T21:21:29.380Z,74.30
2019-01-06T21:24:31.961Z,74.41
2019-01-06T21:27:21.416Z,74.45
2019-01-06T21:30:10.071Z,74.50
2019-01-06T21:33:15.418Z,74.50
2019-01-06T21:36:04.175Z,74.39
2019-01-06T21:38:52.944Z,74.66
2019-01-06T21:41:43.303Z,75.05
2019-01-06T21:44:45.504Z,75.05
2019-01-06T21:47:33.947Z,75.24
2019-01-06T21:50:27.203Z,75.24
2019-01-06T21:53:17.401Z,75.02
2019-01-06T21:56:13.945Z,75.13
2019-01-06T21:59:15.383Z,75.13
2019-01-06T22:02:04.668Z,75.02
2019-01-06T22:05:13.698Z,75.51
2019-01-06T22:08:02.657Z,75.08
2019-01-06T22:10:51.711Z,75.08
2019-01-06T22:13:35.664Z,75.29
2019-01-06T22:16:24.527Z,75.01
2019-01-06T22:19:30.568Z,75.04
2019-01-06T22:22:19.537Z,75.04
2019-01-06T22:25:28.966Z,75.18
2019-01-06T22:28:17.737Z,75.38
2019-01-06T22:31:06.891Z,75.38
2019-01-06T22:34:06.518Z,75.15
2019-01-06T22:37:02.638Z,75.49
2019-01-06T22:40:01.838Z,75.34
2019-01-06T22:42:52.626Z,75.20
2019-01-06T22:45:52.141Z,75.20
2019-01-06T22:48:55.240Z,75.35
2019-01-06T22:51:44.202Z,75.83
2019-01-06T22:54:33.235Z,75.35
2019-01-06T22:57:22.413Z,75.83
2019-01-06T23:00:18.949Z,76.21
2019-01-06T23:03:17.363Z,76.64
2019-01-06T23:06:06.715Z,76.64
2019-01-06T23:08:50.563Z,76.02
2019-01-06T23:11:39.491Z,76.02
2019-01-06T23:14:28.681Z,76.71
2019-01-06T23:17:17.852Z,76.42
2019-01-06T23:20:08.127Z,76.42
2019-01-06T23:23:17.466Z,76.80
2019-01-06T23:26:10.622Z,76.84
2019-01-06T23:29:06.717Z,76.84
2019-01-06T23:32:03.231Z,76.66
2019-01-06T23:34:53.992Z,77.44
2019-01-06T23:37:43.151Z,77.79
2019-01-06T23:40:33.959Z,77.12
2019-01-06T23:43:22.937Z,77.12
2019-01-06T23:46:11.878Z,77.27
2019-01-06T23:49:14.459Z,77.64
2019-01-06T23:52:08.037Z,77.46
2019-01-06T23:54:56.674Z,77.58
2019-01-06T23:57:50.055Z,77.90
